createdAt,value
2023-02-11T00:01:44.565Z,39.87
2023-02-11T00:04:13.476Z,39.58
2023-02-11T00:06:42.394Z,39.72
2023-02-11T00:09:12.116Z,39.75
2023-02-11T00:11:41.359Z,39.93
2023-02-11T00:14:13.003Z,39.49
2023-02-11T00:16:42.297Z,39.67
2023-02-11T00:19:12.207Z,39.76
2023-02-11T00:21:41.829Z,39.41
2023-02-11T00:24:10.435Z,39.75
2023-02-11T00:26:39.401Z,39.75
2023-02-11T00:29:08.232Z,39.76
2023-02-11T00:31:37.328Z,39.94
2023-02-11T00:34:07.332Z,39.91
2023-02-11T00:36:37.591Z,39.67
2023-02-11T00:39:06.663Z,39.95
2023-02-11T00:41:37.766Z,40.07
2023-02-11T00:44:06.652Z,40.54
2023-02-11T00:46:35.532Z,40.23
2023-02-11T00:49:04.445Z,40.24
2023-02-11T00:51:33.508Z,40.07
2023-02-11T00:54:05.740Z,40.46
2023-02-11T00:56:34.937Z,40.20
2023-02-11T00:59:04.085Z,40.75
2023-02-11T01:01:33.242Z,40.61
2023-02-11T01:04:01.958Z,40.39
2023-02-11T01:06:30.881Z,40.52
2023-02-11T01:08:59.977Z,40.62
2023-02-11T01:11:30.352Z,40.26
2023-02-11T01:13:59.020Z,40.37
2023-02-11T01:16:27.883Z,40.14
2023-02-11T01:18:56.612Z,40.79
2023-02-11T01:21:26.028Z,40.85
2023-02-11T01:23:54.631Z,40.38
2023-02-11T01:26:23.565Z,41.13
2023-02-11T01:28:53.555Z,41.13
2023-02-11T01:31:22.591Z,41.31
2023-02-11T01:33:51.168Z,41.14
2023-02-11T01:36:20.013Z,41.44
2023-02-11T01:38:49.997Z,41.19
2023-02-11T01:41:20.870Z,41.91
2023-02-11T01:43:51.166Z,42.12
2023-02-11T01:46:31.699Z,41.95
2023-02-11T01:49:05.294Z,41.93
2023-02-11T01:51:39.790Z,41.46
2023-02-11T01:54:28.769Z,41.09
2023-02-11T01:57:18.858Z,41.25
2023-02-11T01:59:53.637Z,41.75
2023-02-11T02:02:31.926Z,41.51
2023-02-11T02:05:07.157Z,41.91
2023-02-11T02:07:43.381Z,41.68
2023-02-11T02:10:19.412Z,41.92
2023-02-11T02:12:48.441Z,41.57
2023-02-11T02:15:26.415Z,41.42
2023-02-11T02:18:01.750Z,41.86
2023-02-11T02:21:03.041Z,40.82
2023-02-11T02:23:59.228Z,41.61
2023-02-11T02:27:00.311Z,41.38
2023-02-11T02:30:09.898Z,40.69
2023-02-11T02:32:53.324Z,41.12
2023-02-11T02:35:36.101Z,42.01
2023-02-11T02:38:09.815Z,41.61
2023-02-11T02:40:45.591Z,41.45
2023-02-11T02:43:15.009Z,42.14
2023-02-11T02:45:43.812Z,41.45
2023-02-11T02:48:27.642Z,41.67
2023-02-11T02:51:10.349Z,41.69
2023-02-11T02:53:53.339Z,41.80
2023-02-11T02:56:29.683Z,42.30
2023-02-11T02:59:14.866Z,41.97
2023-02-11T03:01:54.742Z,41.83
2023-02-11T03:04:32.176Z,42.10
2023-02-11T03:07:05.234Z,42.12
2023-02-11T03:09:40.548Z,41.51
2023-02-11T03:12:11.724Z,41.99
2023-02-11T03:14:42.016Z,42.28
2023-02-11T03:17:11.888Z,41.93
2023-02-11T03:19:44.918Z,42.13
2023-02-11T03:22:21.337Z,42.50
2023-02-11T03:24:50.880Z,41.93
2023-02-11T03:27:22.821Z,41.91
2023-02-11T03:29:59.158Z,42.41
2023-02-11T03:32:31.618Z,42.48
2023-02-11T03:35:06.553Z,42.56
2023-02-11T03:37:40.923Z,42.49
2023-02-11T03:40:13.618Z,42.73
2023-02-11T03:42:49.568Z,42.94
2023-02-11T03:45:21.237Z,42.47
2023-02-11T03:47:55.981Z,42.83
2023-02-11T03:50:29.497Z,42.85
2023-02-11T03:53:00.534Z,42.96
2023-02-11T03:55:31.115Z,43.02
2023-02-11T03:58:00.063Z,42.72
2023-02-11T04:00:31.961Z,42.94
2023-02-11T04:03:00.998Z,42.79
2023-02-11T04:05:31.622Z,43.05
2023-02-11T04:08:00.527Z,43.02
2023-02-11T04:10:29.224Z,43.10
2023-02-11T04:12:58.609Z,43.30
2023-02-11T04:15:27.222Z,42.95
2023-02-11T04:17:56.063Z,42.76
2023-02-11T04:20:24.629Z,42.86
2023-02-11T04:22:54.846Z,42.77
2023-02-11T04:25:23.573Z,42.84
2023-02-11T04:27:52.393Z,42.99
2023-02-11T04:30:21.164Z,43.18
2023-02-11T04:32:50.041Z,43.02
2023-02-11T04:35:18.758Z,43.09
2023-02-11T04:37:47.864Z,42.85
2023-02-11T04:40:18.207Z,43.09
2023-02-11T04:42:47.041Z,42.88
2023-02-11T04:45:15.481Z,43.28
2023-02-11T04:47:44.736Z,43.34
2023-02-11T04:50:13.335Z,42.88
2023-02-11T04:52:42.157Z,42.81
2023-02-11T04:55:10.810Z,43.00
2023-02-11T04:57:41.123Z,43.25
2023-02-11T05:00:11.240Z,43.17
2023-02-11T05:02:41.135Z,42.88
2023-02-11T05:05:09.853Z,43.00
2023-02-11T05:07:38.938Z,42.91
2023-02-11T05:10:07.753Z,43.31
2023-02-11T05:12:36.698Z,43.11
2023-02-11T05:15:07.552Z,43.46
2023-02-11T05:17:36.731Z,43.17
2023-02-11T05:20:05.813Z,43.29
2023-02-11T05:22:34.738Z,43.04
2023-02-11T05:25:03.339Z,43.11
2023-02-11T05:27:32.219Z,43.16
2023-02-11T05:30:00.812Z,43.08
2023-02-11T05:32:31.261Z,43.62
2023-02-11T05:34:59.841Z,43.51
2023-02-11T05:37:28.806Z,43.34
2023-02-11T05:39:57.496Z,43.24
2023-02-11T05:42:26.429Z,43.66
2023-02-11T05:44:55.102Z,43.75
2023-02-11T05:47:24.320Z,43.86
2023-02-11T05:49:54.651Z,43.61
2023-02-11T05:52:24.415Z,43.55
2023-02-11T05:54:53.245Z,43.66
2023-02-11T05:57:22.200Z,43.78
2023-02-11T05:59:50.714Z,43.68
2023-02-11T06:02:19.794Z,43.79
2023-02-11T06:04:48.393Z,44.08
2023-02-11T06:07:19.916Z,43.89
2023-02-11T06:09:48.658Z,43.96
2023-02-11T06:12:17.661Z,43.93
2023-02-11T06:14:46.414Z,43.76
2023-02-11T06:17:15.820Z,43.61
2023-02-11T06:19:44.456Z,43.42
2023-02-11T06:22:13.346Z,43.13
2023-02-11T06:25:00.308Z,43.19
2023-02-11T06:27:31.278Z,43.22
2023-02-11T06:30:00.016Z,42.82
2023-02-11T06:32:46.164Z,42.73
2023-02-11T06:35:15.945Z,42.90
2023-02-11T06:37:44.862Z,42.53
2023-02-11T06:40:14.898Z,42.64
2023-02-11T06:42:43.791Z,42.53
2023-02-11T06:45:13.394Z,42.56
2023-02-11T06:47:42.999Z,41.97
2023-02-11T06:50:15.161Z,41.64
2023-02-11T06:52:44.069Z,41.80
2023-02-11T06:55:14.544Z,41.76
2023-02-11T06:57:43.534Z,41.03
2023-02-11T07:00:13.469Z,41.32
2023-02-11T07:02:42.339Z,41.25
2023-02-11T07:05:12.417Z,40.80
2023-02-11T07:07:41.595Z,40.48
2023-02-11T07:10:10.525Z,40.35
2023-02-11T07:12:41.347Z,40.39
2023-02-11T07:15:10.180Z,40.22
2023-02-11T07:17:39.212Z,40.14
2023-02-11T07:20:09.236Z,39.97
2023-02-11T07:22:38.504Z,39.95
2023-02-11T07:25:07.575Z,39.70
2023-02-11T07:27:36.914Z,39.49
2023-02-11T07:30:07.758Z,39.47
2023-02-11T07:32:36.681Z,39.31
2023-02-11T07:35:05.968Z,39.16
2023-02-11T07:37:35.179Z,39.01
2023-02-11T07:40:03.875Z,38.58
2023-02-11T07:42:32.728Z,38.61
2023-02-11T07:45:01.322Z,38.64
2023-02-11T07:47:31.661Z,38.80
2023-02-11T07:50:00.188Z,38.81
2023-02-11T07:52:30.832Z,38.69
2023-02-11T07:54:59.377Z,38.46
2023-02-11T07:57:28.877Z,38.77
2023-02-11T07:59:57.380Z,38.25
2023-02-11T08:02:26.331Z,38.40
2023-02-11T08:04:56.453Z,38.51
2023-02-11T08:07:26.128Z,38.30
2023-02-11T08:09:55.623Z,38.56
2023-02-11T08:12:24.690Z,38.98
2023-02-11T08:14:53.277Z,38.19
2023-02-11T08:17:22.241Z,38.35
2023-02-11T08:19:51.033Z,38.01
2023-02-11T08:22:21.418Z,38.07
2023-02-11T08:24:52.327Z,37.21
2023-02-11T08:27:21.330Z,37.45
2023-02-11T08:29:49.890Z,36.83
2023-02-11T08:32:18.829Z,37.29
2023-02-11T08:34:48.620Z,36.88
2023-02-11T08:37:17.792Z,36.69
2023-02-11T08:39:48.601Z,36.27
2023-02-11T08:42:17.855Z,35.43
2023-02-11T08:44:46.487Z,37.30
2023-02-11T08:47:17.139Z,37.21
2023-02-11T08:49:45.887Z,36.91
2023-02-11T08:52:15.265Z,38.80
2023-02-11T08:54:44.061Z,39.74
2023-02-11T08:57:15.025Z,39.14
2023-02-11T08:59:43.882Z,39.54
2023-02-11T09:02:14.311Z,39.10
2023-02-11T09:04:43.252Z,38.62
2023-02-11T09:07:12.834Z,38.28
2023-02-11T09:09:42.053Z,37.74
2023-02-11T09:12:11.450Z,37.95
2023-02-11T09:14:43.171Z,37.60
2023-02-11T09:17:12.291Z,37.02
2023-02-11T09:19:41.163Z,36.85
2023-02-11T09:22:10.416Z,36.39
2023-02-11T09:24:39.218Z,35.95
2023-02-11T09:27:07.992Z,36.25
2023-02-11T09:29:36.590Z,38.17
2023-02-11T09:32:09.819Z,40.13
2023-02-11T09:34:38.762Z,41.56
2023-02-11T09:37:07.725Z,41.75
2023-02-11T09:39:36.603Z,42.02
2023-02-11T09:42:31.551Z,43.10
2023-02-11T09:45:02.109Z,43.18
2023-02-11T09:47:35.485Z,41.96
2023-02-11T09:50:07.962Z,41.27
2023-02-11T09:52:45.263Z,40.27
2023-02-11T09:55:21.592Z,41.83
2023-02-11T09:57:50.859Z,40.42
2023-02-11T10:00:24.103Z,40.61
2023-02-11T10:03:28.012Z,40.37
2023-02-11T10:06:21.282Z,40.60
2023-02-11T10:09:00.407Z,39.46
2023-02-11T10:11:37.900Z,39.15
2023-02-11T10:14:22.957Z,38.36
2023-02-11T10:17:08.289Z,38.31
2023-02-11T10:19:52.536Z,38.32
2023-02-11T10:22:26.737Z,38.21
2023-02-11T10:24:58.436Z,39.67
2023-02-11T10:27:31.915Z,40.22
2023-02-11T10:30:05.918Z,40.10
2023-02-11T10:32:43.057Z,39.98
2023-02-11T10:35:18.040Z,38.53
2023-02-11T10:37:46.909Z,38.25
2023-02-11T10:40:18.716Z,37.61
2023-02-11T10:42:49.980Z,36.99
2023-02-11T10:45:24.824Z,35.56
2023-02-11T10:47:53.451Z,35.42
2023-02-11T10:50:27.379Z,34.53
2023-02-11T10:53:13.550Z,34.98
2023-02-11T10:55:52.888Z,34.58
2023-02-11T10:58:28.215Z,33.97
2023-02-11T11:01:00.005Z,32.77
2023-02-11T11:03:33.674Z,32.03
2023-02-11T11:06:07.897Z,32.02
2023-02-11T11:08:43.338Z,31.70
2023-02-11T11:11:15.140Z,33.25
2023-02-11T11:13:56.505Z,32.83
2023-02-11T11:16:28.397Z,32.62
2023-02-11T11:19:17.343Z,32.14
2023-02-11T11:21:49.715Z,33.04
2023-02-11T11:24:22.890Z,32.49
2023-02-11T11:26:55.409Z,32.34
2023-02-11T11:29:29.334Z,31.85
2023-02-11T11:32:01.412Z,31.24
2023-02-11T11:34:32.926Z,31.10
2023-02-11T11:37:12.066Z,31.46
2023-02-11T11:39:41.236Z,30.88
2023-02-11T11:42:26.964Z,30.56
2023-02-11T11:45:01.160Z,32.63
2023-02-11T11:47:37.320Z,32.99
2023-02-11T11:50:35.429Z,32.63
2023-02-11T11:53:13.966Z,32.60
2023-02-11T11:55:46.950Z,31.93
2023-02-11T11:58:20.103Z,31.44
2023-02-11T12:00:59.147Z,30.64
2023-02-11T12:04:01.660Z,32.32
2023-02-11T12:06:42.715Z,32.39
2023-02-11T12:09:24.886Z,33.68
2023-02-11T12:12:20.968Z,33.13
2023-02-11T12:14:59.690Z,34.08
2023-02-11T12:17:48.179Z,35.20
2023-02-11T12:20:39.079Z,34.38
2023-02-11T12:23:31.269Z,33.83
2023-02-11T12:26:14.072Z,33.76
2023-02-11T12:28:57.844Z,32.85
2023-02-11T12:31:39.459Z,32.17
2023-02-11T12:34:46.303Z,31.90
2023-02-11T12:37:33.521Z,33.25
2023-02-11T12:40:15.513Z,35.20
2023-02-11T12:43:19.412Z,35.35
2023-02-11T12:46:02.710Z,34.34
2023-02-11T12:49:07.417Z,34.59
2023-02-11T12:51:56.941Z,35.20
2023-02-11T12:54:31.746Z,35.41
2023-02-11T12:57:05.198Z,35.87
2023-02-11T12:59:43.408Z,35.80
2023-02-11T13:02:25.903Z,36.20
2023-02-11T13:04:58.418Z,36.67
2023-02-11T13:07:31.182Z,35.42
2023-02-11T13:10:07.824Z,36.65
2023-02-11T13:12:55.545Z,36.53
2023-02-11T13:15:26.263Z,34.87
2023-02-11T13:18:02.243Z,35.16
2023-02-11T13:20:42.885Z,35.52
2023-02-11T13:23:20.263Z,34.64
2023-02-11T13:25:54.326Z,34.35
2023-02-11T13:28:36.067Z,36.16
2023-02-11T13:31:08.126Z,37.12
2023-02-11T13:33:39.616Z,37.75
2023-02-11T13:36:18.299Z,37.38
2023-02-11T13:38:56.946Z,36.46
2023-02-11T13:41:30.414Z,35.97
2023-02-11T13:44:02.148Z,36.73
2023-02-11T13:47:04.868Z,35.59
2023-02-11T13:49:37.592Z,35.31
2023-02-11T13:52:17.681Z,35.12
2023-02-11T13:54:51.363Z,35.95
2023-02-11T13:57:37.586Z,35.05
2023-02-11T14:00:50.082Z,35.62
2023-02-11T14:03:47.094Z,36.45
2023-02-11T14:06:37.446Z,36.53
2023-02-11T14:09:40.416Z,36.65
2023-02-11T14:12:31.555Z,35.89
2023-02-11T14:15:20.610Z,36.35
2023-02-11T14:17:49.363Z,36.38
2023-02-11T14:20:44.736Z,36.03
2023-02-11T14:23:31.136Z,36.54
2023-02-11T14:26:10.053Z,36.07
2023-02-11T14:28:41.781Z,36.04
2023-02-11T14:31:14.773Z,35.88
2023-02-11T14:34:07.310Z,33.98
2023-02-11T14:36:52.044Z,34.56
2023-02-11T14:39:47.527Z,34.56
2023-02-11T14:42:21.075Z,35.51
2023-02-11T14:44:52.047Z,35.12
2023-02-11T14:47:26.987Z,34.00
2023-02-11T14:49:56.007Z,33.95
2023-02-11T14:52:30.739Z,33.91
2023-02-11T14:55:14.718Z,32.58
2023-02-11T14:57:45.769Z,33.97
2023-02-11T15:00:21.497Z,33.59
2023-02-11T15:02:50.755Z,32.98
2023-02-11T15:05:22.759Z,34.32
2023-02-11T15:07:55.942Z,34.89
2023-02-11T15:10:33.132Z,35.91
2023-02-11T15:13:04.600Z,34.77
2023-02-11T15:15:35.924Z,35.40
2023-02-11T15:18:06.470Z,34.89
2023-02-11T15:20:35.957Z,34.48
2023-02-11T15:23:10.421Z,34.67
2023-02-11T15:25:44.327Z,35.57
2023-02-11T15:28:23.152Z,36.67
2023-02-11T15:30:59.617Z,35.64
2023-02-11T15:33:30.467Z,34.96
2023-02-11T15:36:00.585Z,35.94
2023-02-11T15:38:32.056Z,34.82
2023-02-11T15:41:02.391Z,34.01
2023-02-11T15:43:45.374Z,34.17
2023-02-11T15:46:17.978Z,34.03
2023-02-11T15:48:49.969Z,33.47
2023-02-11T15:51:22.882Z,34.83
2023-02-11T15:53:57.166Z,34.84
2023-02-11T15:56:30.862Z,34.31
2023-02-11T15:59:02.213Z,33.71
2023-02-11T16:01:34.132Z,33.71
2023-02-11T16:04:05.453Z,33.64
2023-02-11T16:06:39.481Z,33.67
2023-02-11T16:09:26.696Z,33.69
2023-02-11T16:11:58.203Z,33.13
2023-02-11T16:14:32.614Z,33.29
2023-02-11T16:17:07.063Z,34.32
2023-02-11T16:19:37.323Z,34.10
2023-02-11T16:22:11.660Z,34.17
2023-02-11T16:24:42.013Z,34.19
2023-02-11T16:27:22.903Z,33.50
2023-02-11T16:29:52.938Z,33.95
2023-02-11T16:32:24.068Z,33.71
2023-02-11T16:34:55.189Z,34.03
2023-02-11T16:37:23.940Z,33.93
2023-02-11T16:39:56.382Z,35.01
2023-02-11T16:42:25.346Z,34.92
2023-02-11T16:44:54.174Z,34.40
2023-02-11T16:47:26.181Z,34.05
2023-02-11T16:49:56.779Z,33.39
2023-02-11T16:52:26.641Z,33.34
2023-02-11T16:54:56.843Z,33.80
2023-02-11T16:57:29.649Z,33.42
2023-02-11T17:00:00.021Z,33.63
2023-02-11T17:02:30.815Z,33.47
2023-02-11T17:05:02.571Z,33.56
2023-02-11T17:07:31.394Z,33.02
2023-02-11T17:10:02.214Z,33.48
2023-02-11T17:12:30.812Z,33.01
2023-02-11T17:14:59.585Z,33.16
2023-02-11T17:17:29.457Z,33.37
2023-02-11T17:19:58.393Z,33.35
2023-02-11T17:22:27.008Z,33.61
2023-02-11T17:24:57.177Z,33.49
2023-02-11T17:27:27.149Z,33.34
2023-02-11T17:29:56.119Z,33.30
2023-02-11T17:32:24.801Z,33.41
2023-02-11T17:34:54.330Z,33.14
2023-02-11T17:37:22.901Z,33.41
2023-02-11T17:39:51.849Z,33.58
2023-02-11T17:42:20.312Z,33.71
2023-02-11T17:44:50.728Z,33.65
2023-02-11T17:47:19.287Z,34.11
2023-02-11T17:49:48.211Z,33.83
2023-02-11T17:52:16.845Z,33.38
2023-02-11T17:54:45.963Z,33.53
2023-02-11T17:57:14.925Z,33.96
2023-02-11T17:59:43.971Z,34.09
2023-02-11T18:02:14.172Z,33.93
2023-02-11T18:04:43.106Z,34.45
2023-02-11T18:07:11.689Z,34.15
2023-02-11T18:09:41.923Z,34.30
2023-02-11T18:12:11.248Z,34.41
2023-02-11T18:14:40.900Z,34.24
2023-02-11T18:17:10.509Z,34.01
2023-02-11T18:19:40.991Z,34.68
2023-02-11T18:22:09.843Z,34.12
2023-02-11T18:24:38.823Z,34.27
2023-02-11T18:27:07.367Z,34.32
2023-02-11T18:29:36.394Z,35.19
2023-02-11T18:32:05.200Z,34.97
2023-02-11T18:34:33.995Z,34.54
2023-02-11T18:37:04.005Z,35.00
2023-02-11T18:39:32.889Z,34.60
2023-02-11T18:42:01.827Z,35.19
2023-02-11T18:44:30.808Z,35.17
2023-02-11T18:46:59.379Z,34.89
2023-02-11T18:49:28.840Z,34.71
2023-02-11T18:51:58.696Z,35.45
2023-02-11T18:54:28.912Z,35.58
2023-02-11T18:56:57.488Z,34.96
2023-02-11T18:59:26.418Z,35.55
2023-02-11T19:01:55.032Z,36.28
2023-02-11T19:04:23.850Z,35.90
2023-02-11T19:06:52.552Z,36.23
2023-02-11T19:09:22.092Z,36.57
2023-02-11T19:11:53.947Z,35.96
2023-02-11T19:14:24.756Z,36.58
2023-02-11T19:16:55.598Z,36.59
2023-02-11T19:19:28.082Z,36.11
2023-02-11T19:21:58.020Z,36.92
2023-02-11T19:24:28.623Z,36.73
2023-02-11T19:27:01.292Z,36.28
2023-02-11T19:29:32.169Z,36.33
2023-02-11T19:32:00.822Z,36.37
2023-02-11T19:34:29.782Z,35.97
2023-02-11T19:36:59.713Z,35.86
2023-02-11T19:39:28.559Z,35.47
2023-02-11T19:41:58.649Z,35.70
2023-02-11T19:44:27.497Z,34.99
2023-02-11T19:46:56.129Z,34.83
2023-02-11T19:49:26.411Z,35.42
2023-02-11T19:51:58.196Z,34.81
2023-02-11T19:54:29.188Z,35.22
2023-02-11T19:57:00.008Z,34.69
2023-02-11T19:59:29.012Z,34.54
2023-02-11T20:01:57.712Z,34.78
2023-02-11T20:04:26.701Z,35.00
2023-02-11T20:06:55.201Z,34.95
2023-02-11T20:09:24.538Z,35.34
2023-02-11T20:11:53.412Z,34.32
2023-02-11T20:14:25.572Z,34.93
2023-02-11T20:16:55.374Z,34.18
2023-02-11T20:19:24.484Z,34.50
2023-02-11T20:21:56.140Z,34.33
2023-02-11T20:24:26.642Z,34.57
2023-02-11T20:26:56.573Z,34.32
2023-02-11T20:29:27.442Z,34.81
2023-02-11T20:31:56.242Z,34.30
2023-02-11T20:34:25.439Z,34.43
2023-02-11T20:36:54.909Z,34.31
2023-02-11T20:39:25.693Z,34.27
2023-02-11T20:41:54.885Z,34.34
2023-02-11T20:44:24.655Z,34.89
2023-02-11T20:46:55.569Z,34.73
2023-02-11T20:49:26.950Z,34.65
2023-02-11T20:51:58.384Z,35.30
2023-02-11T20:54:27.500Z,34.33
2023-02-11T20:56:57.088Z,35.04
2023-02-11T20:59:26.472Z,34.33
2023-02-11T21:01:57.838Z,34.70
2023-02-11T21:04:29.491Z,34.01
2023-02-11T21:07:00.293Z,34.19
2023-02-11T21:09:31.666Z,34.27
2023-02-11T21:12:00.615Z,33.72
2023-02-11T21:14:30.197Z,34.44
2023-02-11T21:17:00.127Z,33.67
2023-02-11T21:19:29.162Z,33.76
2023-02-11T21:22:00.692Z,34.15
2023-02-11T21:24:30.900Z,33.56
2023-02-11T21:27:00.278Z,33.52
2023-02-11T21:29:29.245Z,33.58
2023-02-11T21:31:59.246Z,33.82
2023-02-11T21:34:28.204Z,33.43
2023-02-11T21:36:56.860Z,33.52
2023-02-11T21:39:25.742Z,34.32
2023-02-11T21:41:55.992Z,34.28
2023-02-11T21:44:24.803Z,33.54
2023-02-11T21:46:53.478Z,34.03
2023-02-11T21:49:23.731Z,34.20
2023-02-11T21:51:52.241Z,33.92
2023-02-11T21:54:21.083Z,33.75
2023-02-11T21:56:51.949Z,34.20
2023-02-11T21:59:20.901Z,34.24
2023-02-11T22:01:50.349Z,34.03
2023-02-11T22:04:19.271Z,34.61
2023-02-11T22:06:49.417Z,34.41
2023-02-11T22:09:19.355Z,34.66
2023-02-11T22:11:49.340Z,34.36
2023-02-11T22:14:18.258Z,34.25
2023-02-11T22:16:46.935Z,34.82
2023-02-11T22:19:16.319Z,34.33
2023-02-11T22:21:44.805Z,34.29
2023-02-11T22:24:15.122Z,34.70
2023-02-11T22:26:43.823Z,34.91
2023-02-11T22:29:13.168Z,34.64
2023-02-11T22:31:42.938Z,34.40
2023-02-11T22:34:12.634Z,35.05
2023-02-11T22:36:44.705Z,34.61
2023-02-11T22:39:16.904Z,34.73
2023-02-11T22:41:47.516Z,34.69
2023-02-11T22:44:17.591Z,34.49
2023-02-11T22:46:46.203Z,35.03
2023-02-11T22:49:17.503Z,34.01
2023-02-11T22:51:46.703Z,34.70
2023-02-11T22:54:18.964Z,34.77
2023-02-11T22:56:51.626Z,34.37
2023-02-11T22:59:21.467Z,34.08
2023-02-11T23:01:50.371Z,34.32
2023-02-11T23:04:20.930Z,34.15
2023-02-11T23:06:50.435Z,34.54
2023-02-11T23:09:20.670Z,34.25
2023-02-11T23:11:49.982Z,34.61
2023-02-11T23:14:18.845Z,34.11
2023-02-11T23:16:50.746Z,34.99
2023-02-11T23:19:19.952Z,35.00
2023-02-11T23:21:52.463Z,34.66
2023-02-11T23:24:23.089Z,34.61
2023-02-11T23:26:52.089Z,34.38
2023-02-11T23:29:21.233Z,34.53
2023-02-11T23:31:49.993Z,34.21
2023-02-11T23:34:23.949Z,34.60
2023-02-11T23:36:52.588Z,34.08
2023-02-11T23:39:22.831Z,34.46
2023-02-11T23:41:53.088Z,34.14
2023-02-11T23:44:22.008Z,34.23
2023-02-11T23:46:50.553Z,34.36
2023-02-11T23:49:19.387Z,34.53
2023-02-11T23:51:47.907Z,34.18
2023-02-11T23:54:16.949Z,33.57
2023-02-11T23:56:47.039Z,33.74
2023-02-11T23:59:15.841Z,33.29
